Time;durP1;ratioP1;P1;durP2;ratioP2;P2;SDS_P1;SDS_P2;PMS_P1;PMS_P2;Temp;Humidity;BMP_temperature;BMP_pressure;BME280_temperature;BME280_humidity;BME280_pressure;Samples;Min_cycle;Max_cycle;Signal;HPM_P1;HPM_P2
2024/03/09 00:00:16;;;;;;;;;;;;;;;9.27;48.94;100439.25;4970447;27;98314;-71
2024/03/09 00:02:50;;;;;;;;;;;;;;;9.26;49.31;100439.53;4986361;27;99675;-72
2024/03/09 00:05:20;;;;;;;;;;;;;;;9.23;49.05;100430.09;4993054;27;98288;-72
2024/03/09 00:07:47;;;;;;;;;;;;;;;9.21;48.95;100432.25;4980292;27;99696;-71
2024/03/09 00:10:14;;;;;;;;;;;;;;;9.21;48.88;100428.75;4983408;27;99392;-72
2024/03/09 00:12:47;;;;;;;;;;;;;;;9.19;49.59;100426.31;4973539;27;98066;-71
2024/03/09 00:15:15;;;;;;;;;;;;;;;9.17;48.67;100423.06;4978248;27;98285;-72
2024/03/09 00:17:47;;;;;;;;;;;;;;;9.15;48.53;100427.88;4976839;27;98098;-71
2024/03/09 00:20:15;;;;;;;;;;;;;;;9.12;48.98;100419.53;4983964;27;98939;-71
2024/03/09 00:22:45;;;;;;;;;;;;;;;9.10;49.33;100417.91;4985647;27;98399;-71
2024/03/09 00:25:11;;;;;;;;;;;;;;;9.08;48.90;100424.63;4981220;27;98713;-71
2024/03/09 00:27:39;;;;;;;;;;;;;;;9.06;49.31;100416.81;4989449;27;98136;-72
2024/03/09 00:30:10;;;;;;;;;;;;;;;9.04;49.12;100418.97;5004323;27;98641;-72
2024/03/09 00:32:38;;;;;;;;;;;;;;;9.03;49.35;100419.19;4989042;27;98180;-71
2024/03/09 00:35:06;;;;;;;;;;;;;;;9.01;48.99;100414.09;4972671;27;98440;-71
2024/03/09 00:37:33;;;;;;;;;;;;;;;8.99;48.73;100415.41;4962774;27;97940;-72
2024/03/09 00:40:00;;;;;;;;;;;;;;;8.98;49.34;100408.41;4968255;27;98282;-72
2024/03/09 00:42:27;;;;;;;;;;;;;;;8.95;49.48;100406.22;5000003;27;99508;-71
2024/03/09 00:44:54;;;;;;;;;;;;;;;8.94;49.05;100393.88;4987415;27;98704;-71
2024/03/09 00:47:22;;;;;;;;;;;;;;;8.93;48.78;100400.31;4983938;27;97903;-71
2024/03/09 00:49:49;;;;;;;;;;;;;;;8.91;48.87;100391.69;4986010;27;97799;-71
2024/03/09 00:52:19;;;;;;;;;;;;;;;8.90;49.28;100387.38;4980214;27;98272;-71
2024/03/09 00:54:45;;;;;;;;;;;;;;;8.88;49.06;100381.44;5003693;27;98218;-71
2024/03/09 00:57:13;;;;;;;;;;;;;;;8.85;48.86;100388.16;4985617;27;99356;-72
2024/03/09 00:59:41;;;;;;;;;;;;;;;8.84;49.31;100381.16;4991782;27;98098;-72
2024/03/09 01:02:08;;;;;;;;;;;;;;;8.82;49.56;100385.97;4968394;27;99167;-71
2024/03/09 01:04:35;;;;;;;;;;;;;;;8.80;48.51;100378.19;4978778;27;100049;-71
2024/03/09 01:07:04;;;;;;;;;;;;;;;8.79;48.74;100378.44;4971537;27;98313;-71
2024/03/09 01:09:31;;;;;;;;;;;;;;;8.77;49.02;100372.53;4973556;27;103292;-71
2024/03/09 01:11:57;;;;;;;;;;;;;;;8.76;48.82;100371.72;4980808;27;97993;-72
2024/03/09 01:14:24;;;;;;;;;;;;;;;8.74;48.80;100363.09;4969465;27;98299;-72
2024/03/09 01:16:51;;;;;;;;;;;;;;;8.72;49.08;100364.41;4984020;27;97831;-72
2024/03/09 01:19:20;;;;;;;;;;;;;;;8.71;49.57;100360.09;4964033;27;97918;-71
2024/03/09 01:21:46;;;;;;;;;;;;;;;8.70;49.25;100350.41;4992771;27;98313;-71
2024/03/09 01:24:16;;;;;;;;;;;;;;;8.68;49.38;100349.84;4984588;27;98436;-71
2024/03/09 01:26:44;;;;;;;;;;;;;;;8.66;49.16;100344.75;4994942;27;98305;-72
2024/03/09 01:29:11;;;;;;;;;;;;;;;8.64;48.93;100341.50;4987676;27;97955;-72
2024/03/09 01:31:38;;;;;;;;;;;;;;;8.62;49.07;100332.09;5002838;27;98877;-72
2024/03/09 01:34:06;;;;;;;;;;;;;;;8.62;49.43;100326.72;4980134;27;98278;-71
2024/03/09 01:36:33;;;;;;;;;;;;;;;8.60;49.14;100326.94;4982010;27;98856;-72
2024/03/09 01:39:00;;;;;;;;;;;;;;;8.59;49.17;100333.41;4967735;27;98290;-71
2024/03/09 01:41:28;;;;;;;;;;;;;;;8.57;48.83;100325.59;4978804;27;98079;-71
2024/03/09 01:43:55;;;;;;;;;;;;;;;8.55;49.09;100327.72;4983436;27;98507;-72
2024/03/09 01:46:22;;;;;;;;;;;;;;;8.54;49.44;100328.81;4964456;27;98934;-72
2024/03/09 01:48:48;;;;;;;;;;;;;;;8.54;49.19;100320.75;4965389;27;98110;-71
2024/03/09 01:51:15;;;;;;;;;;;;;;;8.52;49.47;100324.75;4985390;27;98277;-72
2024/03/09 01:53:42;;;;;;;;;;;;;;;8.49;49.17;100315.34;4998854;27;99870;-71
2024/03/09 01:56:13;;;;;;;;;;;;;;;8.49;48.99;100326.09;4983458;27;98208;-71
2024/03/09 01:58:42;;;;;;;;;;;;;;;8.48;49.47;100319.06;4983297;27;98013;-71
2024/03/09 02:01:30;;;;;;;;;;;;;;;8.46;48.85;100309.66;4972045;27;100786;-72
2024/03/09 02:03:59;;;;;;;;;;;;;;;8.46;49.58;100296.25;5000526;27;98295;-72
2024/03/09 02:06:29;;;;;;;;;;;;;;;8.43;48.98;100300.22;4970634;27;98344;-71
2024/03/09 02:08:59;;;;;;;;;;;;;;;8.42;49.36;100300.50;4985787;27;98000;-71
2024/03/09 02:11:30;;;;;;;;;;;;;;;8.40;49.25;100291.88;4972545;27;98042;-71
2024/03/09 02:13:56;;;;;;;;;;;;;;;8.40;49.53;100291.88;4978447;27;98946;-71
2024/03/09 02:16:24;;;;;;;;;;;;;;;8.36;49.33;100286.19;4991752;27;98882;-71
2024/03/09 02:18:51;;;;;;;;;;;;;;;8.36;49.10;100286.97;4977751;27;98160;-71
2024/03/09 02:21:18;;;;;;;;;;;;;;;8.35;49.11;100282.69;4994905;27;98129;-71
2024/03/09 02:23:47;;;;;;;;;;;;;;;8.35;49.23;100281.88;4998175;27;98109;-72
2024/03/09 02:26:16;;;;;;;;;;;;;;;8.32;49.19;100269.75;4984332;27;98311;-71
2024/03/09 02:28:56;;;;;;;;;;;;;;;8.31;48.80;100273.53;4977009;27;99939;-71
2024/03/09 02:31:23;;;;;;;;;;;;;;;8.30;49.28;100273.78;4978651;27;98178;-71
2024/03/09 02:33:55;;;;;;;;;;;;;;;8.27;49.55;100266.25;4994234;27;98298;-71
2024/03/09 02:36:29;;;;;;;;;;;;;;;8.23;49.19;100270.50;4976794;27;98197;-73
2024/03/09 02:38:56;;;;;;;;;;;;;;;8.20;49.32;100266.44;4971028;27;98199;-72
2024/03/09 02:41:24;;;;;;;;;;;;;;;8.16;49.17;100262.66;4990971;27;97908;-72
2024/03/09 02:43:53;;;;;;;;;;;;;;;8.14;49.70;100264.81;4967510;27;98191;-71
2024/03/09 02:46:21;;;;;;;;;;;;;;;8.11;49.40;100260.75;4989615;27;98279;-71
2024/03/09 02:48:49;;;;;;;;;;;;;;;8.08;49.42;100263.94;4988623;27;98253;-71
2024/03/09 02:51:16;;;;;;;;;;;;;;;8.06;49.39;100258.03;4991828;27;98629;-71
2024/03/09 02:53:43;;;;;;;;;;;;;;;8.04;49.34;100254.78;5001350;27;98063;-72
2024/03/09 02:56:15;;;;;;;;;;;;;;;8.03;49.19;100253.16;4984923;27;101354;-71
2024/03/09 02:58:42;;;;;;;;;;;;;;;8.02;49.42;100251.53;4976645;27;97994;-71
2024/03/09 03:01:11;;;;;;;;;;;;;;;8.00;49.55;100245.59;4972523;27;101872;-72
2024/03/09 03:03:56;;;;;;;;;;;;;;;7.98;49.50;100244.25;4968510;27;98425;-72
2024/03/09 03:06:23;;;;;;;;;;;;;;;7.96;48.91;100247.19;4990564;27;98121;-71
2024/03/09 03:08:55;;;;;;;;;;;;;;;7.95;49.09;100250.13;4985639;27;98430;-72
2024/03/09 03:11:22;;;;;;;;;;;;;;;7.93;49.59;100246.88;4983988;27;99328;-72
2024/03/09 03:13:49;;;;;;;;;;;;;;;7.93;48.93;100252.25;4971484;27;100621;-72
2024/03/09 03:16:19;;;;;;;;;;;;;;;7.90;49.32;100244.69;4979277;27;98345;-72
2024/03/09 03:18:49;;;;;;;;;;;;;;;7.90;49.07;100244.69;4988952;27;98219;-72
2024/03/09 03:21:16;;;;;;;;;;;;;;;7.88;48.94;100236.91;4959471;27;98231;-71
2024/03/09 03:23:43;;;;;;;;;;;;;;;7.87;49.18;100238.78;4983860;27;98776;-71
2024/03/09 03:26:14;;;;;;;;;;;;;;;7.85;49.11;100237.41;4966295;27;99956;-72
2024/03/09 03:28:47;;;;;;;;;;;;;;;7.85;49.45;100232.84;4982577;27;98148;-71
2024/03/09 03:31:16;;;;;;;;;;;;;;;7.84;49.20;100233.13;4979923;27;98656;-71
2024/03/09 03:33:44;;;;;;;;;;;;;;;7.82;49.47;100228.03;4984267;27;97921;-71
2024/03/09 03:36:13;;;;;;;;;;;;;;;7.81;48.92;100226.38;4970034;27;99793;-72
2024/03/09 03:38:44;;;;;;;;;;;;;;;7.80;49.36;100226.66;4968607;27;97883;-72
2024/03/09 03:41:14;;;;;;;;;;;;;;;7.79;48.92;100225.84;4985380;27;98327;-71
2024/03/09 03:43:44;;;;;;;;;;;;;;;7.80;49.58;100226.66;4971955;27;98278;-72
2024/03/09 03:46:16;;;;;;;;;;;;;;;7.76;49.32;100230.91;4972413;27;98132;-72
2024/03/09 03:48:45;;;;;;;;;;;;;;;7.76;49.49;100222.84;4970794;27;98449;-71
2024/03/09 03:51:15;;;;;;;;;;;;;;;7.75;49.32;100229.28;4972367;27;99172;-72
2024/03/09 03:53:42;;;;;;;;;;;;;;;7.73;49.23;100218.78;4999566;27;99728;-71
2024/03/09 03:56:09;;;;;;;;;;;;;;;7.73;48.97;100218.78;4984406;27;97862;-71
2024/03/09 03:58:44;;;;;;;;;;;;;;;7.71;49.53;100220.94;5005636;27;98388;-71
2024/03/09 04:01:11;;;;;;;;;;;;;;;7.72;48.98;100216.38;4983694;27;98301;-72
2024/03/09 04:03:39;;;;;;;;;;;;;;;7.71;49.48;100212.06;4979509;27;97705;-72
2024/03/09 04:06:06;;;;;;;;;;;;;;;7.70;49.39;100218.47;4987709;27;98044;-71
2024/03/09 04:08:32;;;;;;;;;;;;;;;7.68;48.97;100218.75;4986667;27;98012;-72
2024/03/09 04:10:59;;;;;;;;;;;;;;;7.67;49.17;100217.13;5001908;27;98699;-71
2024/03/09 04:13:27;;;;;;;;;;;;;;;7.66;49.42;100212.81;4970158;27;98641;-71
2024/03/09 04:15:55;;;;;;;;;;;;;;;7.66;49.20;100217.38;4983399;27;97968;-71
2024/03/09 04:18:22;;;;;;;;;;;;;;;7.65;49.46;100213.06;4968782;27;97895;-71
2024/03/09 04:20:48;;;;;;;;;;;;;;;7.63;49.38;100213.34;4969072;27;98060;-72
2024/03/09 04:23:18;;;;;;;;;;;;;;;7.63;49.27;100219.50;4988223;27;98634;-71
2024/03/09 04:25:46;;;;;;;;;;;;;;;7.62;49.24;100209.03;4982128;27;98508;-71
2024/03/09 04:28:20;;;;;;;;;;;;;;;7.61;49.47;100215.47;4982004;27;99334;-72
2024/03/09 04:30:48;;;;;;;;;;;;;;;7.59;49.29;100207.69;4984830;27;98095;-73
2024/03/09 04:33:15;;;;;;;;;;;;;;;7.62;49.64;100217.06;4982664;27;98176;-72
2024/03/09 04:35:42;;;;;;;;;;;;;;;7.64;49.22;100217.63;4984357;27;98581;-72
2024/03/09 04:38:08;;;;;;;;;;;;;;;7.65;49.44;100210.41;4972328;27;98069;-72
2024/03/09 04:40:35;;;;;;;;;;;;;;;7.68;49.13;100209.91;4998688;27;98351;-73
2024/03/09 04:43:04;;;;;;;;;;;;;;;7.70;49.22;100200.50;5006875;27;98584;-72
2024/03/09 04:45:33;;;;;;;;;;;;;;;7.72;49.04;100195.72;4968162;27;98108;-73
2024/03/09 04:47:59;;;;;;;;;;;;;;;7.74;49.24;100195.44;4967486;27;97986;-72
2024/03/09 04:50:28;;;;;;;;;;;;;;;7.80;49.36;100191.75;4999073;27;98295;-72
2024/03/09 04:52:55;;;;;;;;;;;;;;;7.88;48.96;100188.59;4985875;27;100531;-73
2024/03/09 04:55:27;;;;;;;;;;;;;;;7.97;49.58;100187.06;4964828;27;98102;-72
2024/03/09 04:57:54;;;;;;;;;;;;;;;8.03;49.38;100183.34;5003290;27;98272;-72
2024/03/09 05:00:20;;;;;;;;;;;;;;;8.10;48.73;100191.19;4980506;27;97989;-73
2024/03/09 05:02:47;;;;;;;;;;;;;;;8.16;49.18;100192.03;4977804;27;98187;-73
2024/03/09 05:05:14;;;;;;;;;;;;;;;8.18;49.13;100188.03;4969300;27;99450;-73
2024/03/09 05:07:43;;;;;;;;;;;;;;;8.24;49.06;100196.94;4986259;27;98188;-72
2024/03/09 05:10:10;;;;;;;;;;;;;;;8.27;49.17;100197.22;4997319;27;98096;-72
2024/03/09 05:12:37;;;;;;;;;;;;;;;8.28;49.06;100196.16;4983508;27;98438;-73
2024/03/09 05:15:03;;;;;;;;;;;;;;;8.32;49.72;100197.25;4984563;27;98047;-72
2024/03/09 05:17:30;;;;;;;;;;;;;;;8.34;49.18;100192.44;5001013;27;98331;-72
2024/03/09 05:19:56;;;;;;;;;;;;;;;8.38;48.92;100187.41;4981662;27;98048;-73
2024/03/09 05:22:22;;;;;;;;;;;;;;;8.40;49.54;100184.44;4981545;27;104975;-73
2024/03/09 05:24:48;;;;;;;;;;;;;;;8.42;49.57;100187.69;4984531;27;103228;-73
2024/03/09 05:27:15;;;;;;;;;;;;;;;8.45;49.24;100189.81;4982948;27;98114;-72
2024/03/09 05:29:43;;;;;;;;;;;;;;;8.47;48.90;100179.66;4964292;27;101251;-73
2024/03/09 05:32:10;;;;;;;;;;;;;;;8.49;49.37;100185.56;4986701;27;99684;-73
2024/03/09 05:34:37;;;;;;;;;;;;;;;8.50;48.59;100182.63;4980812;27;98084;-72
2024/03/09 05:37:06;;;;;;;;;;;;;;;8.54;49.60;100180.22;4981288;27;98253;-73
2024/03/09 05:39:36;;;;;;;;;;;;;;;8.57;49.09;100171.66;4977609;27;97943;-72
2024/03/09 05:42:04;;;;;;;;;;;;;;;8.58;48.85;100167.91;4963914;27;98024;-72
2024/03/09 05:44:32;;;;;;;;;;;;;;;8.62;49.05;100166.31;4976946;27;98325;-72
2024/03/09 05:47:01;;;;;;;;;;;;;;;8.63;49.20;100161.72;4963757;27;98030;-73
2024/03/09 05:49:27;;;;;;;;;;;;;;;8.66;49.13;100161.22;4961910;27;97874;-72
2024/03/09 05:51:54;;;;;;;;;;;;;;;8.69;48.77;100158.00;4966073;27;98855;-72
2024/03/09 05:54:21;;;;;;;;;;;;;;;8.72;48.87;100160.16;4997145;27;98338;-72
2024/03/09 05:56:47;;;;;;;;;;;;;;;8.74;48.75;100160.72;4964919;27;99387;-73
2024/03/09 05:59:13;;;;;;;;;;;;;;;8.77;49.43;100157.50;4965629;27;116167;-72
2024/03/09 06:01:39;;;;;;;;;;;;;;;8.79;49.16;100152.66;4956198;27;98038;-72
2024/03/09 06:04:05;;;;;;;;;;;;;;;8.81;49.01;100150.53;4980842;27;98855;-73
2024/03/09 06:06:30;;;;;;;;;;;;;;;8.84;48.70;100155.34;4962830;27;128581;-73
2024/03/09 06:08:56;;;;;;;;;;;;;;;8.87;49.59;100152.16;4975873;27;98566;-72
2024/03/09 06:11:22;;;;;;;;;;;;;;;8.90;48.80;100150.81;4976834;27;98243;-72
2024/03/09 06:13:48;;;;;;;;;;;;;;;8.94;49.01;100154.59;4982664;27;100087;-73
2024/03/09 06:16:17;;;;;;;;;;;;;;;8.98;49.26;100148.44;4972345;27;105407;-73
2024/03/09 06:18:47;;;;;;;;;;;;;;;9.01;48.91;100149.78;4962491;27;98228;-73
2024/03/09 06:21:17;;;;;;;;;;;;;;;9.01;48.76;100142.53;4946648;27;98260;-72
2024/03/09 06:23:44;;;;;;;;;;;;;;;9.04;48.77;100143.91;4964718;27;99447;-73
2024/03/09 06:26:10;;;;;;;;;;;;;;;9.05;48.62;100142.81;4945531;28;98357;-72
2024/03/09 06:28:38;;;;;;;;;;;;;;;9.07;48.68;100149.53;4961305;27;99600;-72
2024/03/09 06:31:05;;;;;;;;;;;;;;;9.12;48.90;100142.53;4958173;27;99770;-72
2024/03/09 06:33:31;;;;;;;;;;;;;;;9.16;48.64;100136.41;4955206;28;99702;-72
2024/03/09 06:36:00;;;;;;;;;;;;;;;9.19;48.66;100137.72;4955058;27;98090;-73
2024/03/09 06:38:35;;;;;;;;;;;;;;;9.23;48.76;100141.50;4943185;28;98642;-72
2024/03/09 06:41:01;;;;;;;;;;;;;;;9.26;49.27;100138.28;4946130;27;98575;-72
2024/03/09 06:43:27;;;;;;;;;;;;;;;9.29;49.46;100141.25;4942507;27;98120;-72
2024/03/09 06:45:56;;;;;;;;;;;;;;;9.32;49.04;100134.53;4939020;27;100379;-72
2024/03/09 06:48:23;;;;;;;;;;;;;;;9.36;49.19;100127.56;4957759;27;98268;-72
2024/03/09 06:50:49;;;;;;;;;;;;;;;9.40;48.99;100134.00;4935045;27;98278;-72
2024/03/09 06:53:15;;;;;;;;;;;;;;;9.46;48.58;100130.22;4955673;27;128092;-72
2024/03/09 06:55:41;;;;;;;;;;;;;;;9.53;49.15;100132.66;4962425;27;99053;-72
2024/03/09 06:58:07;;;;;;;;;;;;;;;9.57;48.70;100128.38;4964329;27;98196;-73
2024/03/09 07:00:34;;;;;;;;;;;;;;;9.60;49.40;100125.16;4961178;27;98197;-72
2024/03/09 07:03:00;;;;;;;;;;;;;;;9.62;48.79;100122.97;4959597;27;97985;-73
2024/03/09 07:05:34;;;;;;;;;;;;;;;9.64;48.80;100117.34;4960187;27;117684;-72
2024/03/09 07:08:00;;;;;;;;;;;;;;;9.67;48.76;100119.47;4966233;27;97959;-73
2024/03/09 07:10:27;;;;;;;;;;;;;;;9.72;49.12;100114.13;4984829;27;98449;-72
2024/03/09 07:12:53;;;;;;;;;;;;;;;9.78;48.79;100111.13;4957225;27;98323;-73
2024/03/09 07:15:22;;;;;;;;;;;;;;;9.82;48.76;100117.63;4941217;27;103263;-73
2024/03/09 07:17:48;;;;;;;;;;;;;;;9.89;49.00;100122.69;4967123;27;98444;-73
2024/03/09 07:20:16;;;;;;;;;;;;;;;9.93;48.90;100101.44;4961156;27;98294;-73
2024/03/09 07:22:51;;;;;;;;;;;;;;;9.97;48.67;100105.19;4961873;27;98327;-72
2024/03/09 07:25:24;;;;;;;;;;;;;;;10.01;48.72;100103.56;4983082;27;99182;-72
2024/03/09 07:27:55;;;;;;;;;;;;;;;10.05;48.48;100112.72;4985306;27;98476;-72
2024/03/09 07:30:21;;;;;;;;;;;;;;;10.09;48.92;100103.00;4977877;27;98757;-73
2024/03/09 07:32:50;;;;;;;;;;;;;;;10.11;48.73;100108.94;4965093;27;112902;-72
2024/03/09 07:35:18;;;;;;;;;;;;;;;10.16;48.75;100105.44;4965944;27;98893;-73
2024/03/09 07:37:52;;;;;;;;;;;;;;;10.21;48.52;100105.41;4961960;27;98927;-72
2024/03/09 07:40:20;;;;;;;;;;;;;;;10.25;48.54;100107.31;4963282;27;98494;-73
2024/03/09 07:42:48;;;;;;;;;;;;;;;10.25;48.90;100101.13;4994827;27;99594;-73
2024/03/09 07:45:15;;;;;;;;;;;;;;;10.27;48.61;100104.38;4961672;27;98440;-73
2024/03/09 07:47:42;;;;;;;;;;;;;;;10.31;48.72;100097.34;4980302;27;98268;-72
2024/03/09 07:50:13;;;;;;;;;;;;;;;10.32;48.89;100099.75;4979113;27;97922;-72
2024/03/09 07:52:41;;;;;;;;;;;;;;;10.35;48.92;100097.59;4992400;27;98386;-73
2024/03/09 07:55:08;;;;;;;;;;;;;;;10.37;48.92;100106.22;4976194;27;98874;-73
2024/03/09 07:57:34;;;;;;;;;;;;;;;10.38;48.54;100097.88;4959807;27;98425;-73
2024/03/09 08:00:04;;;;;;;;;;;;;;;10.40;48.91;100095.69;4978078;27;98451;-73
2024/03/09 08:02:32;;;;;;;;;;;;;;;10.42;48.89;100093.53;4977669;27;98104;-72
2024/03/09 08:05:03;;;;;;;;;;;;;;;10.40;48.49;100093.00;4961197;27;103110;-72
2024/03/09 08:07:30;;;;;;;;;;;;;;;10.42;48.72;100087.34;4978203;27;98373;-73
2024/03/09 08:09:56;;;;;;;;;;;;;;;10.42;48.59;100085.47;4972768;27;98676;-72
2024/03/09 08:12:22;;;;;;;;;;;;;;;10.42;49.24;100085.47;4973750;27;98804;-73
2024/03/09 08:14:48;;;;;;;;;;;;;;;10.42;48.99;100079.25;4959947;27;100023;-73
2024/03/09 08:17:14;;;;;;;;;;;;;;;10.41;48.97;100073.03;4994483;27;118902;-73
2024/03/09 08:19:40;;;;;;;;;;;;;;;10.42;49.04;100076.56;4976126;27;98622;-73
2024/03/09 08:22:08;;;;;;;;;;;;;;;10.41;48.77;100070.34;4976721;27;112573;-73
2024/03/09 08:24:35;;;;;;;;;;;;;;;10.43;48.98;100062.00;4965556;27;97956;-72
2024/03/09 08:27:02;;;;;;;;;;;;;;;10.43;48.68;100057.41;4979403;27;98279;-72
2024/03/09 08:29:31;;;;;;;;;;;;;;;10.44;49.03;100056.34;4975955;27;99927;-72
2024/03/09 08:31:58;;;;;;;;;;;;;;;10.45;49.19;100041.78;4977095;27;99927;-72
2024/03/09 08:34:24;;;;;;;;;;;;;;;10.45;49.01;100049.88;4974598;27;98283;-72
2024/03/09 08:36:51;;;;;;;;;;;;;;;10.48;48.80;100052.00;4975830;27;98094;-73
2024/03/09 08:39:18;;;;;;;;;;;;;;;10.51;49.33;100048.75;4979064;27;99552;-73
2024/03/09 08:41:46;;;;;;;;;;;;;;;10.51;48.67;100043.38;4963123;27;98845;-73
2024/03/09 08:44:13;;;;;;;;;;;;;;;10.52;48.91;100049.56;4973652;27;98324;-73
2024/03/09 08:46:39;;;;;;;;;;;;;;;10.52;48.97;100046.88;4973191;27;98397;-73
2024/03/09 08:49:04;;;;;;;;;;;;;;;10.52;49.12;100036.09;4958441;27;99046;-73
2024/03/09 08:51:31;;;;;;;;;;;;;;;10.53;48.86;100040.38;4960081;27;98071;-73
2024/03/09 08:53:56;;;;;;;;;;;;;;;10.55;48.77;100039.03;4975963;27;98715;-73
2024/03/09 08:56:23;;;;;;;;;;;;;;;10.57;49.20;100038.75;4958841;27;116595;-73
2024/03/09 08:58:48;;;;;;;;;;;;;;;10.59;48.82;100033.91;4973015;27;101066;-73
2024/03/09 09:01:15;;;;;;;;;;;;;;;10.61;49.16;100028.22;4955719;27;131334;-73
2024/03/09 09:03:41;;;;;;;;;;;;;;;10.63;48.76;100026.06;4971771;27;99292;-73
2024/03/09 09:06:08;;;;;;;;;;;;;;;10.64;48.97;100028.47;4994946;27;98329;-73
2024/03/09 09:08:36;;;;;;;;;;;;;;;10.66;49.18;100028.22;4976910;27;98094;-73
2024/03/09 09:11:02;;;;;;;;;;;;;;;10.71;48.60;100025.47;4960760;27;98150;-73
2024/03/09 09:13:28;;;;;;;;;;;;;;;10.75;49.10;100019.25;4974502;27;98310;-73
2024/03/09 09:15:54;;;;;;;;;;;;;;;10.78;49.11;100020.59;4978560;27;97956;-72
2024/03/09 09:18:23;;;;;;;;;;;;;;;10.84;48.51;100021.34;4977691;27;113188;-73
2024/03/09 09:20:49;;;;;;;;;;;;;;;10.90;48.74;100021.06;4980843;27;99540;-73
2024/03/09 09:23:15;;;;;;;;;;;;;;;11.00;48.87;100012.91;4958041;27;98774;-73
2024/03/09 09:25:41;;;;;;;;;;;;;;;11.18;48.32;100007.91;4955551;27;98223;-73
2024/03/09 09:28:08;;;;;;;;;;;;;;;11.43;48.51;99999.56;4979064;27;101694;-73
2024/03/09 09:30:34;;;;;;;;;;;;;;;11.81;47.99;99997.06;4976934;27;99646;-73
2024/03/09 09:33:00;;;;;;;;;;;;;;;12.59;47.06;99989.66;4977086;27;98392;-73
2024/03/09 09:35:26;;;;;;;;;;;;;;;12.57;47.74;99999.94;4976268;27;98183;-73
2024/03/09 09:37:59;;;;;;;;;;;;;;;12.60;47.72;99994.75;4988050;27;98265;-73
2024/03/09 09:40:25;;;;;;;;;;;;;;;12.66;47.89;99993.59;4960080;27;98701;-73
2024/03/09 09:42:52;;;;;;;;;;;;;;;12.73;47.83;99991.34;4955685;27;112620;-72
2024/03/09 09:45:22;;;;;;;;;;;;;;;12.82;47.95;99993.38;4974269;27;98263;-73
2024/03/09 09:47:48;;;;;;;;;;;;;;;12.86;47.81;99983.59;4973290;27;98258;-73
2024/03/09 09:50:20;;;;;;;;;;;;;;;12.88;47.99;99989.50;4948073;28;99730;-73
2024/03/09 09:52:50;;;;;;;;;;;;;;;12.89;47.95;99991.09;4951276;27;98832;-72
2024/03/09 09:55:19;;;;;;;;;;;;;;;12.87;48.15;99994.09;4977328;27;98082;-73
2024/03/09 09:57:48;;;;;;;;;;;;;;;12.86;48.56;99989.78;4971818;27;98146;-73
2024/03/09 10:00:15;;;;;;;;;;;;;;;12.87;48.45;99985.19;4974664;27;98861;-73
2024/03/09 10:02:41;;;;;;;;;;;;;;;12.87;48.43;99985.19;4958026;27;98476;-71
2024/03/09 10:05:14;;;;;;;;;;;;;;;12.92;48.26;99980.50;4960141;27;97908;-71
2024/03/09 10:08:06;;;;;;;;;;;;;;;12.97;48.29;99982.34;4978875;27;98105;-71
2024/03/09 10:10:35;;;;;;;;;;;;;;;13.01;48.04;99978.75;4996158;27;99373;-71
2024/03/09 10:13:08;;;;;;;;;;;;;;;13.01;48.24;99977.94;4976761;27;97979;-70
2024/03/09 10:15:35;;;;;;;;;;;;;;;13.07;48.51;99981.34;4959954;27;98879;-71
2024/03/09 10:18:02;;;;;;;;;;;;;;;13.15;48.23;99980.69;4962871;27;98667;-71
2024/03/09 10:20:29;;;;;;;;;;;;;;;13.17;48.32;99979.28;4992503;27;99420;-71
2024/03/09 10:22:57;;;;;;;;;;;;;;;13.16;48.63;99979.56;4972979;27;99580;-71
2024/03/09 10:25:31;;;;;;;;;;;;;;;13.22;48.13;99975.69;4978948;27;98650;-71
2024/03/09 10:28:01;;;;;;;;;;;;;;;13.32;48.50;99974.72;4975723;27;98000;-71
2024/03/09 10:30:27;;;;;;;;;;;;;;;13.34;48.27;99964.44;4953681;27;98206;-71
2024/03/09 10:32:57;;;;;;;;;;;;;;;13.29;48.13;99972.66;4958309;27;98907;-73
2024/03/09 10:35:23;;;;;;;;;;;;;;;13.49;48.14;99967.66;4986726;27;98180;-72
2024/03/09 10:37:55;;;;;;;;;;;;;;;13.63;48.09;99966.88;4973481;27;98363;-73
2024/03/09 10:40:21;;;;;;;;;;;;;;;13.75;48.04;99954.47;4995052;27;98855;-73
2024/03/09 10:42:49;;;;;;;;;;;;;;;13.92;47.83;99961.97;4978205;27;110484;-72
2024/03/09 10:45:19;;;;;;;;;;;;;;;13.96;48.06;99954.84;4974965;27;98106;-73
2024/03/09 10:47:53;;;;;;;;;;;;;;;13.97;48.05;99953.75;4973256;27;102376;-73
2024/03/09 10:50:27;;;;;;;;;;;;;;;14.11;47.92;99950.22;4975034;27;98206;-73
2024/03/09 10:53:07;;;;;;;;;;;;;;;14.29;47.96;99943.06;4964591;27;98233;-73
2024/03/09 10:56:15;;;;;;;;;;;;;;;14.31;47.77;99941.66;4995372;27;98429;-73
2024/03/09 10:58:41;;;;;;;;;;;;;;;14.40;48.07;99925.47;5012577;27;99834;-73
2024/03/09 11:01:08;;;;;;;;;;;;;;;14.37;48.10;99921.44;4984433;27;98186;-73
2024/03/09 11:03:35;;;;;;;;;;;;;;;14.28;48.04;99926.00;4977450;27;112886;-73
2024/03/09 11:06:02;;;;;;;;;;;;;;;14.31;48.22;99913.75;4983703;27;98507;-73
2024/03/09 11:08:32;;;;;;;;;;;;;;;14.32;48.51;99923.50;4981031;27;98163;-73
2024/03/09 11:10:58;;;;;;;;;;;;;;;14.27;48.42;99924.41;4980342;27;98895;-73
2024/03/09 11:13:24;;;;;;;;;;;;;;;14.24;48.50;99919.59;4990753;27;99289;-73
2024/03/09 11:15:51;;;;;;;;;;;;;;;14.23;48.15;99915.28;4977090;27;103984;-73
2024/03/09 11:18:21;;;;;;;;;;;;;;;14.24;48.32;99914.97;4983248;27;97992;-73
2024/03/09 11:20:52;;;;;;;;;;;;;;;14.24;48.15;99911.47;4961531;27;98084;-73
2024/03/09 11:23:22;;;;;;;;;;;;;;;14.37;48.20;99905.19;4980228;27;97996;-73
2024/03/09 11:25:49;;;;;;;;;;;;;;;14.49;48.13;99902.75;4977235;27;107777;-73
2024/03/09 11:28:16;;;;;;;;;;;;;;;14.55;48.27;99908.09;4999888;27;97958;-74
2024/03/09 11:31:14;;;;;;;;;;;;;;;14.59;48.08;99906.38;4976138;27;98226;-73
2024/03/09 11:33:46;;;;;;;;;;;;;;;15.07;47.69;99897.59;5010452;27;98360;-72
2024/03/09 11:36:41;;;;;;;;;;;;;;;15.12;47.66;99894.72;4963288;27;98209;-73
2024/03/09 11:39:09;;;;;;;;;;;;;;;15.11;48.02;99890.44;4984404;27;98655;-73
2024/03/09 11:41:36;;;;;;;;;;;;;;;15.07;47.92;99892.97;4962622;27;98319;-73
2024/03/09 11:44:04;;;;;;;;;;;;;;;15.10;48.08;99896.97;4991877;27;98420;-73
2024/03/09 11:46:34;;;;;;;;;;;;;;;15.04;48.10;99898.19;4981502;27;98560;-73
2024/03/09 11:49:03;;;;;;;;;;;;;;;15.01;48.28;99894.19;4966621;27;97989;-73
2024/03/09 11:51:33;;;;;;;;;;;;;;;15.06;48.20;99885.13;4979922;27;98207;-72
2024/03/09 11:54:03;;;;;;;;;;;;;;;15.08;48.04;99897.25;4978746;27;97977;-72
2024/03/09 11:56:38;;;;;;;;;;;;;;;15.00;48.34;99886.38;4964588;27;97904;-73
2024/03/09 11:59:07;;;;;;;;;;;;;;;14.94;48.53;99886.50;4962171;27;98056;-72
2024/03/09 12:01:35;;;;;;;;;;;;;;;14.99;48.39;99880.13;4987370;27;98394;-72
2024/03/09 12:04:03;;;;;;;;;;;;;;;15.05;48.26;99878.09;4963129;27;100274;-72
2024/03/09 12:06:30;;;;;;;;;;;;;;;15.15;47.85;99875.13;4979759;27;98364;-69
2024/03/09 12:08:57;;;;;;;;;;;;;;;15.35;47.73;99877.28;4959097;27;99321;-70
2024/03/09 12:11:27;;;;;;;;;;;;;;;15.23;48.22;99871.66;4965375;27;99101;-70
2024/03/09 12:13:55;;;;;;;;;;;;;;;15.19;48.12;99865.25;4996121;27;98122;-70
2024/03/09 12:16:26;;;;;;;;;;;;;;;15.23;48.22;99864.28;4985001;27;100354;-70
2024/03/09 12:18:54;;;;;;;;;;;;;;;15.19;48.19;99865.25;4963784;27;99799;-70
2024/03/09 12:21:23;;;;;;;;;;;;;;;15.09;48.36;99855.47;4960595;27;98274;-70
2024/03/09 12:23:52;;;;;;;;;;;;;;;14.98;48.36;99868.50;4961600;27;98191;-69
2024/03/09 12:26:23;;;;;;;;;;;;;;;14.88;48.59;99865.22;4946908;28;98177;-72
2024/03/09 12:28:50;;;;;;;;;;;;;;;14.83;48.22;99865.38;4966766;27;98164;-72
2024/03/09 12:31:17;;;;;;;;;;;;;;;14.86;48.84;99870.97;4946758;27;98301;-72
2024/03/09 12:33:48;;;;;;;;;;;;;;;14.77;48.66;99861.16;4961832;27;99724;-72
2024/03/09 12:36:15;;;;;;;;;;;;;;;14.67;48.66;99871.16;4954633;27;98192;-72
2024/03/09 12:38:42;;;;;;;;;;;;;;;14.61;48.99;99869.66;4945504;27;99096;-73
2024/03/09 12:41:29;;;;;;;;;;;;;;;14.72;48.56;99859.38;4966574;27;99372;-73
2024/03/09 12:44:03;;;;;;;;;;;;;;;14.68;48.47;99855.69;4957202;28;98407;-74
2024/03/09 12:46:34;;;;;;;;;;;;;;;14.66;48.39;99852.50;4949290;28;98533;-73
2024/03/09 12:49:04;;;;;;;;;;;;;;;14.65;48.47;99848.97;4970858;27;98247;-74